Hauptseite
METAR-TAF:

METAR-TAF

Flughäfen :

Militärflugplatz Cervia

Cervia, Italien

Breite: 44-13N, Länge: 012-18E, Höhe: 6 m

Beobachtung

Neuester Wetterbericht von vor 3 Stunden und 47 Minuten, um 19:55 UTC
Wind 14 kt aus Ost
Temperatur 16°C
Luftfeuchtigkeit 51%
Luftdruck 1033 hPa
Sichtweite 10 km oder mehr
keine Wolken unter 1500 m und keine Kumulonimbus oder Gewitterwolken

METAR: LIPC 251955Z 10014KT CAVOK 16/06 Q1033

Zeit: 01:42 (23:42 UTC)

Prognose

Neuester Wetterbericht von vor 3 Stunden und 42 Minuten, um 20:00 UTC
Gültige Prognose vom 25 um 21 UTC bis 26 um 06 UTC
Wind 15 kt aus Ost
Sichtweite 10 km oder mehr
keine Wolken unter 1500 m und keine Kumulonimbus oder Gewitterwolken

TAF: LIPC 252000Z 2521/2606 10015KT CAVOK

Wetterbeobachtungen und Prognosen von mehr als 4000 Flughäfen (METAR und TAF Bericht).

Die verfügbaren Stationen werden durch gelbe und rote Markierungen auf der Karte dargestellt.

Führen Sie die Maus auf sie, um den Namen der Station zu sehen.

Darauf klicken, um die Beobachtung von Wetterbeobachtungen und Prognosen zu sehen.

Um die Karte zu ändern : klicken Sie auf den grünen Tasten mit einem schwarzen Kreuz Zum Vergrößern, auf den grünen Button mit einem Gedankenstrich zu verkleinern, oder auf die grünen Pfeile für benachbarte Karten.


METAR-TAF: